createdAt,value
2019-04-11T00:00:31.308Z,99.90
2019-04-11T00:03:02.988Z,99.90
2019-04-11T00:05:35.064Z,99.90
2019-04-11T00:08:06.017Z,99.90
2019-04-11T00:10:37.471Z,99.90
2019-04-11T00:13:18.229Z,99.90
2019-04-11T00:15:40.589Z,99.90
2019-04-11T00:18:11.549Z,99.90
2019-04-11T00:20:42.397Z,99.90
2019-04-11T00:23:14.210Z,99.90
2019-04-11T00:25:44.641Z,99.90
2019-04-11T00:28:15.369Z,99.90
2019-04-11T00:30:46.199Z,99.90
2019-04-11T00:33:18.132Z,99.90
2019-04-11T00:35:50.207Z,99.90
2019-04-11T00:38:21.452Z,99.90
2019-04-11T00:40:53.221Z,99.90
2019-04-11T00:43:31.560Z,99.90
2019-04-11T00:45:56.184Z,99.90
2019-04-11T00:48:26.661Z,99.90
2019-04-11T00:50:57.711Z,99.90
2019-04-11T00:53:28.268Z,99.90
2019-04-11T00:55:59.877Z,99.90
2019-04-11T00:58:31.799Z,99.90
2019-04-11T01:01:02.463Z,99.90
2019-04-11T01:03:34.042Z,99.90
2019-04-11T01:06:05.771Z,99.90
2019-04-11T01:08:36.357Z,99.90
2019-04-11T01:11:07.816Z,99.90
2019-04-11T01:13:47.347Z,99.90
2019-04-11T01:16:24.661Z,99.90
2019-04-11T01:18:55.200Z,99.90
2019-04-11T01:21:26.882Z,99.90
2019-04-11T01:23:57.500Z,99.90
2019-04-11T01:26:29.752Z,99.90
2019-04-11T01:29:00.926Z,99.90
2019-04-11T01:31:33.706Z,99.90
2019-04-11T01:34:04.480Z,99.90
2019-04-11T01:36:37.932Z,99.90
2019-04-11T01:39:29.352Z,99.90
2019-04-11T01:42:01.178Z,99.90
2019-04-11T01:44:32.517Z,99.90
2019-04-11T01:47:04.966Z,99.90
2019-04-11T01:49:36.507Z,99.90
2019-04-11T01:52:07.273Z,99.90
2019-04-11T01:54:37.789Z,99.90
2019-04-11T01:57:09.642Z,99.90
2019-04-11T01:59:41.675Z,99.90
2019-04-11T02:02:24.358Z,99.90
2019-04-11T02:05:00.674Z,99.90
2019-04-11T02:07:31.315Z,99.90
2019-04-11T02:10:02.489Z,99.90
2019-04-11T02:12:33.166Z,99.90
2019-04-11T02:15:04.023Z,99.90
2019-04-11T02:17:36.729Z,99.90
2019-04-11T02:20:09.116Z,99.90
2019-04-11T02:22:49.057Z,99.90
2019-04-11T02:25:38.783Z,99.90
2019-04-11T02:28:12.626Z,99.90
2019-04-11T02:30:48.377Z,99.90
2019-04-11T02:33:18.761Z,99.90
2019-04-11T02:35:49.666Z,99.90
2019-04-11T02:38:24.383Z,99.90
2019-04-11T02:40:57.311Z,99.90
2019-04-11T02:43:27.662Z,99.90
2019-04-11T02:46:10.063Z,99.90
2019-04-11T02:48:31.079Z,99.90
2019-04-11T02:51:03.106Z,99.90
2019-04-11T02:53:36.639Z,99.90
2019-04-11T02:56:09.289Z,99.90
2019-04-11T02:58:40.259Z,99.90
2019-04-11T03:01:12.734Z,99.90
2019-04-11T03:03:43.128Z,99.90
2019-04-11T03:06:15.151Z,99.90
2019-04-11T03:08:46.582Z,99.90
2019-04-11T03:11:19.097Z,99.90
2019-04-11T03:13:54.690Z,99.90
2019-04-11T03:16:41.308Z,99.90
2019-04-11T03:19:13.261Z,99.90
2019-04-11T03:21:32.979Z,99.90
2019-04-11T03:24:04.367Z,99.90
2019-04-11T03:26:35.681Z,99.90
2019-04-11T03:29:08.454Z,99.90
2019-04-11T03:32:21.693Z,99.90
2019-04-11T03:35:03.071Z,99.90
2019-04-11T03:37:19.278Z,99.90
2019-04-11T03:39:39.782Z,99.90
2019-04-11T03:42:08.005Z,99.90
2019-04-11T03:44:30.593Z,99.90
2019-04-11T03:47:11.206Z,99.90
2019-04-11T03:49:38.942Z,99.90
2019-04-11T03:52:01.332Z,99.90
2019-04-11T03:54:33.993Z,99.90
2019-04-11T03:57:05.486Z,99.90
2019-04-11T03:59:38.446Z,99.90
2019-04-11T04:02:10.817Z,99.90
2019-04-11T04:04:41.938Z,99.90
2019-04-11T04:07:16.163Z,99.90
2019-04-11T04:09:46.286Z,99.90
2019-04-11T04:12:18.659Z,99.90
2019-04-11T04:15:01.238Z,99.90
2019-04-11T04:17:45.528Z,99.90
2019-04-11T04:20:36.949Z,99.90
2019-04-11T04:23:14.119Z,99.90
2019-04-11T04:25:47.130Z,99.90
2019-04-11T04:28:18.917Z,99.90
2019-04-11T04:30:49.551Z,99.90
2019-04-11T04:33:22.201Z,99.90
2019-04-11T04:35:52.447Z,99.90
2019-04-11T04:38:24.054Z,99.90
2019-04-11T04:41:10.071Z,99.90
2019-04-11T04:43:31.813Z,99.90
2019-04-11T04:46:23.813Z,99.90
2019-04-11T04:48:35.719Z,99.90
2019-04-11T04:51:09.119Z,99.90
2019-04-11T04:53:39.060Z,99.90
2019-04-11T04:56:11.113Z,99.90
2019-04-11T04:58:46.645Z,99.90
2019-04-11T05:01:19.097Z,99.90
2019-04-11T05:03:50.929Z,99.90
2019-04-11T05:06:24.116Z,99.90
2019-04-11T05:08:56.021Z,99.90
2019-04-11T05:11:28.340Z,99.90
2019-04-11T05:14:00.748Z,99.90
2019-04-11T05:16:31.283Z,99.90
2019-04-11T05:19:01.865Z,99.90
2019-04-11T05:21:33.075Z,99.90
2019-04-11T05:24:04.104Z,99.90
2019-04-11T05:26:35.482Z,99.90
2019-04-11T05:29:07.279Z,99.90
2019-04-11T05:31:38.720Z,99.90
2019-04-11T05:34:12.181Z,99.90
2019-04-11T05:36:42.933Z,99.90
2019-04-11T05:39:18.399Z,99.90
2019-04-11T05:41:49.844Z,99.90
2019-04-11T05:44:21.188Z,99.90
2019-04-11T05:46:57.255Z,99.90
2019-04-11T05:49:34.391Z,99.90
2019-04-11T05:52:06.076Z,99.90
2019-04-11T05:54:51.086Z,99.90
2019-04-11T05:57:24.116Z,99.90
2019-04-11T05:59:55.147Z,99.90
2019-04-11T06:02:45.675Z,99.90
2019-04-11T06:05:37.229Z,99.90
2019-04-11T06:08:10.028Z,99.90
2019-04-11T06:10:50.593Z,99.90
2019-04-11T06:13:34.722Z,99.90
2019-04-11T06:16:06.357Z,99.90
2019-04-11T06:18:50.124Z,99.90
2019-04-11T06:21:28.363Z,99.90
2019-04-11T06:24:18.328Z,99.90
2019-04-11T06:27:01.469Z,99.90
2019-04-11T06:29:41.044Z,99.90
2019-04-11T06:32:27.774Z,99.90
2019-04-11T06:35:03.875Z,99.90
2019-04-11T06:37:54.265Z,99.90
2019-04-11T06:40:29.907Z,99.90
2019-04-11T06:43:07.790Z,99.90
2019-04-11T06:45:49.910Z,99.90
2019-04-11T06:48:37.954Z,99.90
2019-04-11T06:51:13.599Z,99.90
2019-04-11T06:53:54.477Z,99.90
2019-04-11T06:56:38.452Z,99.90
2019-04-11T06:59:14.369Z,99.90
2019-04-11T07:01:47.488Z,99.90
2019-04-11T07:04:23.632Z,99.90
2019-04-11T07:06:55.855Z,99.90
2019-04-11T07:09:46.925Z,99.90
2019-04-11T07:12:36.941Z,99.90
2019-04-11T07:15:12.200Z,99.30
2019-04-11T07:18:04.649Z,98.30
2019-04-11T07:20:54.220Z,98.10
2019-04-11T07:23:47.010Z,98.70
2019-04-11T07:26:25.093Z,97.20
2019-04-11T07:29:15.290Z,97.60
2019-04-11T07:32:05.235Z,97.70
2019-04-11T07:34:56.432Z,98.60
2019-04-11T07:37:36.765Z,99.20
2019-04-11T07:40:28.810Z,97.90
2019-04-11T07:43:19.066Z,97.90
2019-04-11T07:46:02.629Z,98.70
2019-04-11T07:48:36.460Z,98.70
2019-04-11T07:51:26.176Z,98.10
2019-04-11T07:54:00.187Z,96.80
2019-04-11T07:56:35.950Z,96.90
2019-04-11T07:59:10.780Z,97.60
2019-04-11T08:02:02.293Z,97.50
2019-04-11T08:04:53.223Z,95.50
2019-04-11T08:07:42.958Z,94.70
2019-04-11T08:10:18.270Z,94.80
2019-04-11T08:12:49.911Z,92.50
2019-04-11T08:15:39.885Z,90.40
2019-04-11T08:18:19.071Z,88.10
2019-04-11T08:21:08.701Z,85.60
2019-04-11T08:23:41.253Z,81.40
2019-04-11T08:26:30.902Z,85.70
2019-04-11T08:29:09.179Z,79.00
2019-04-11T08:31:54.847Z,84.30
2019-04-11T08:34:25.552Z,76.70
2019-04-11T08:37:15.704Z,77.80
2019-04-11T08:39:49.656Z,76.60
2019-04-11T08:42:40.672Z,64.20
2019-04-11T08:45:14.307Z,62.90
2019-04-11T08:47:52.147Z,64.50
2019-04-11T08:50:23.956Z,63.60
2019-04-11T08:53:06.632Z,67.10
2019-04-11T08:55:51.899Z,67.10
2019-04-11T08:58:36.945Z,54.00
2019-04-11T09:01:08.955Z,55.30
2019-04-11T09:04:05.109Z,60.00
2019-04-11T09:06:37.080Z,53.30
2019-04-11T09:09:27.521Z,58.00
2019-04-11T09:12:02.373Z,61.90
2019-04-11T09:14:51.135Z,65.40
2019-04-11T09:17:28.224Z,67.40
2019-04-11T09:20:19.105Z,66.70
2019-04-11T09:23:09.297Z,64.80
2019-04-11T09:25:59.444Z,63.40
2019-04-11T09:28:35.905Z,62.90
2019-04-11T09:31:25.627Z,62.90
2019-04-11T09:34:05.669Z,63.20
2019-04-11T09:36:49.812Z,61.80
2019-04-11T09:39:39.521Z,62.00
2019-04-11T09:42:23.194Z,57.20
2019-04-11T09:44:59.892Z,58.40
2019-04-11T09:47:49.817Z,59.10
2019-04-11T09:50:37.333Z,57.30
2019-04-11T09:53:10.691Z,58.90
2019-04-11T09:55:55.764Z,58.40
2019-04-11T09:58:27.513Z,57.30
2019-04-11T10:01:18.389Z,58.80
2019-04-11T10:03:50.486Z,55.20
2019-04-11T10:06:38.871Z,56.30
2019-04-11T10:09:11.501Z,56.50
2019-04-11T10:12:02.314Z,58.30
2019-04-11T10:14:33.470Z,57.90
2019-04-11T10:17:26.003Z,57.00
2019-04-11T10:20:02.750Z,56.60
2019-04-11T10:22:52.797Z,57.00
2019-04-11T10:25:32.135Z,55.10
2019-04-11T10:28:21.959Z,53.30
2019-04-11T10:31:04.769Z,52.00
2019-04-11T10:33:49.060Z,51.40
2019-04-11T10:36:25.347Z,51.70
2019-04-11T10:39:15.282Z,51.60
2019-04-11T10:41:49.130Z,52.10
2019-04-11T10:44:29.826Z,51.90
2019-04-11T10:47:19.327Z,52.80
2019-04-11T10:50:09.100Z,50.00
2019-04-11T10:52:42.864Z,54.80
2019-04-11T10:55:18.310Z,53.00
2019-04-11T10:58:02.709Z,53.80
2019-04-11T11:00:39.723Z,51.90
2019-04-11T11:03:14.006Z,51.20
2019-04-11T11:05:47.464Z,51.70
2019-04-11T11:08:25.668Z,52.50
2019-04-11T11:10:57.802Z,54.20
2019-04-11T11:13:47.923Z,54.40
2019-04-11T11:16:22.314Z,55.60
2019-04-11T11:19:44.137Z,54.00
2019-04-11T11:21:47.103Z,55.80
2019-04-11T11:24:29.340Z,55.30
2019-04-11T11:27:02.888Z,56.50
2019-04-11T11:29:47.524Z,55.80
2019-04-11T11:32:22.470Z,55.50
2019-04-11T11:35:12.901Z,53.40
2019-04-11T11:37:47.099Z,53.60
2019-04-11T11:40:39.168Z,54.70
2019-04-11T11:43:17.024Z,53.50
2019-04-11T11:46:06.923Z,50.20
2019-04-11T11:48:41.744Z,51.10
2019-04-11T11:51:31.651Z,51.60
2019-04-11T11:54:21.943Z,50.00
2019-04-11T11:56:54.190Z,50.70
2019-04-11T11:59:34.356Z,52.40
2019-04-11T12:02:10.561Z,52.10
2019-04-11T12:05:00.328Z,53.70
2019-04-11T12:07:39.386Z,54.50
2019-04-11T12:10:29.145Z,54.00
2019-04-11T12:13:14.730Z,55.10
2019-04-11T12:15:53.250Z,56.10
2019-04-11T12:18:47.170Z,55.10
2019-04-11T12:21:21.913Z,53.30
2019-04-11T12:24:09.709Z,54.20
2019-04-11T12:26:48.656Z,52.90
2019-04-11T12:29:38.620Z,52.30
2019-04-11T12:32:13.229Z,52.20
2019-04-11T12:34:51.811Z,53.20
2019-04-11T12:37:27.557Z,53.00
2019-04-11T12:40:17.029Z,53.90
2019-04-11T12:42:47.886Z,55.80
2019-04-11T12:45:37.697Z,55.50
2019-04-11T12:48:11.947Z,54.40
2019-04-11T12:50:59.943Z,53.40
2019-04-11T12:53:30.462Z,52.50
2019-04-11T12:56:19.922Z,51.60
2019-04-11T12:58:54.341Z,50.70
2019-04-11T13:01:43.951Z,50.90
2019-04-11T13:04:21.463Z,52.10
2019-04-11T13:07:01.501Z,53.80
2019-04-11T13:09:38.836Z,55.50
2019-04-11T13:12:13.502Z,57.40
2019-04-11T13:15:01.231Z,56.60
2019-04-11T13:17:34.551Z,55.20
2019-04-11T13:20:24.601Z,56.10
2019-04-11T13:22:57.795Z,56.10
2019-04-11T13:25:45.495Z,54.50
2019-04-11T13:28:15.576Z,54.20
2019-04-11T13:31:05.331Z,54.70
2019-04-11T13:33:36.216Z,55.30
2019-04-11T13:36:26.054Z,57.10
2019-04-11T13:38:56.731Z,56.00
2019-04-11T13:41:40.321Z,56.30
2019-04-11T13:44:20.607Z,55.60
2019-04-11T13:47:10.526Z,56.00
2019-04-11T13:49:44.207Z,56.30
2019-04-11T13:52:34.096Z,56.30
2019-04-11T13:55:08.015Z,54.60
2019-04-11T13:57:57.593Z,54.90
2019-04-11T14:00:47.882Z,55.30
2019-04-11T14:03:38.698Z,55.90
2019-04-11T14:06:16.630Z,55.00
2019-04-11T14:09:06.523Z,54.50
2019-04-11T14:11:41.295Z,55.80
2019-04-11T14:14:15.148Z,53.50
2019-04-11T14:17:05.413Z,53.20
2019-04-11T14:19:53.188Z,53.20
2019-04-11T14:22:29.096Z,53.60
2019-04-11T14:25:15.068Z,53.40
2019-04-11T14:27:46.022Z,54.90
2019-04-11T14:30:35.779Z,53.00
2019-04-11T14:33:06.603Z,54.10
2019-04-11T14:35:57.751Z,54.00
2019-04-11T14:38:32.331Z,56.20
2019-04-11T14:41:21.966Z,54.30
2019-04-11T14:44:00.898Z,56.70
2019-04-11T14:46:50.792Z,55.70
2019-04-11T14:49:21.521Z,54.80
2019-04-11T14:52:06.654Z,53.80
2019-04-11T14:54:48.893Z,54.70
2019-04-11T14:57:37.098Z,54.40
2019-04-11T15:00:33.018Z,53.70
2019-04-11T15:03:22.836Z,53.30
2019-04-11T15:06:14.777Z,52.20
2019-04-11T15:09:05.110Z,52.80
2019-04-11T15:11:47.940Z,51.80
2019-04-11T15:14:30.671Z,51.90
2019-04-11T15:17:14.532Z,52.40
2019-04-11T15:19:49.700Z,52.10
2019-04-11T15:22:35.513Z,52.70
2019-04-11T15:25:13.554Z,53.20
2019-04-11T15:28:03.400Z,53.90
2019-04-11T15:30:38.523Z,54.40
2019-04-11T15:33:28.219Z,55.80
2019-04-11T15:35:58.728Z,56.60
2019-04-11T15:38:48.359Z,58.00
2019-04-11T15:41:18.863Z,59.00
2019-04-11T15:44:08.378Z,58.50
2019-04-11T15:46:38.928Z,59.10
2019-04-11T15:49:31.276Z,58.40
2019-04-11T15:52:06.934Z,58.90
2019-04-11T15:54:55.994Z,58.00
2019-04-11T15:57:34.867Z,58.40
2019-04-11T16:00:26.782Z,57.90
2019-04-11T16:03:17.981Z,58.20
2019-04-11T16:06:07.524Z,58.10
2019-04-11T16:08:49.996Z,58.20
2019-04-11T16:11:39.747Z,59.50
2019-04-11T16:14:18.910Z,56.60
2019-04-11T16:16:56.245Z,58.50
2019-04-11T16:19:47.881Z,57.50
2019-04-11T16:22:37.683Z,57.60
2019-04-11T16:25:13.673Z,57.80
2019-04-11T16:28:06.581Z,56.60
2019-04-11T16:30:43.128Z,56.50
2019-04-11T16:33:24.872Z,55.90
2019-04-11T16:36:04.042Z,55.70
2019-04-11T16:38:51.054Z,55.80
2019-04-11T16:41:41.139Z,55.60
2019-04-11T16:44:18.408Z,55.30
2019-04-11T16:47:08.383Z,54.70
2019-04-11T16:49:42.151Z,54.90
2019-04-11T16:52:12.307Z,55.80
2019-04-11T16:54:43.099Z,56.60
2019-04-11T16:57:14.340Z,57.70
2019-04-11T16:59:44.956Z,57.00
2019-04-11T17:02:16.000Z,57.20
2019-04-11T17:04:46.842Z,57.60
2019-04-11T17:07:29.575Z,57.70
2019-04-11T17:10:00.415Z,59.40
2019-04-11T17:12:30.985Z,59.70
2019-04-11T17:15:03.995Z,60.10
2019-04-11T17:17:36.677Z,61.00
2019-04-11T17:20:08.135Z,61.00
2019-04-11T17:22:38.883Z,61.10
2019-04-11T17:25:12.343Z,61.10
2019-04-11T17:27:45.198Z,61.40
2019-04-11T17:30:16.069Z,62.70
2019-04-11T17:32:48.039Z,61.30
2019-04-11T17:35:18.729Z,62.10
2019-04-11T17:37:50.033Z,61.90
2019-04-11T17:40:21.695Z,62.40
2019-04-11T17:42:53.048Z,63.00
2019-04-11T17:45:24.125Z,63.90
2019-04-11T17:47:57.284Z,63.10
2019-04-11T17:50:35.001Z,64.00
2019-04-11T17:53:08.145Z,64.80
2019-04-11T17:55:40.876Z,63.90
2019-04-11T17:58:12.008Z,65.10
2019-04-11T18:00:46.818Z,65.30
2019-04-11T18:03:19.564Z,65.30
2019-04-11T18:05:52.490Z,65.00
2019-04-11T18:08:30.804Z,65.60
2019-04-11T18:11:10.852Z,66.80
2019-04-11T18:13:42.462Z,67.20
2019-04-11T18:16:20.304Z,66.50
2019-04-11T18:18:56.560Z,66.80
2019-04-11T18:21:34.867Z,66.90
2019-04-11T18:24:13.880Z,68.50
2019-04-11T18:26:52.525Z,68.90
2019-04-11T18:29:28.354Z,68.70
2019-04-11T18:32:04.628Z,67.80
2019-04-11T18:34:39.475Z,69.60
2019-04-11T18:37:15.877Z,69.60
2019-04-11T18:39:52.033Z,69.00
2019-04-11T18:42:30.579Z,68.60
2019-04-11T18:45:08.067Z,69.60
2019-04-11T18:47:44.912Z,69.80
2019-04-11T18:50:22.744Z,69.00
2019-04-11T18:53:00.518Z,69.70
2019-04-11T18:55:40.166Z,68.60
2019-04-11T18:58:15.389Z,69.50
2019-04-11T19:00:50.536Z,69.50
2019-04-11T19:03:36.117Z,69.40
2019-04-11T19:06:13.110Z,70.10
2019-04-11T19:08:48.995Z,71.10
2019-04-11T19:11:26.298Z,72.10
2019-04-11T19:14:06.604Z,73.00
2019-04-11T19:16:45.933Z,74.20
2019-04-11T19:19:27.466Z,75.70
2019-04-11T19:22:06.702Z,77.00
2019-04-11T19:24:44.507Z,77.60
2019-04-11T19:27:21.087Z,79.00
2019-04-11T19:29:59.103Z,80.40
2019-04-11T19:32:35.286Z,81.60
2019-04-11T19:35:15.096Z,82.80
2019-04-11T19:37:52.213Z,84.40
2019-04-11T19:40:25.465Z,85.40
2019-04-11T19:42:59.634Z,87.10
2019-04-11T19:45:34.473Z,88.60
2019-04-11T19:48:08.033Z,89.70
2019-04-11T19:50:39.930Z,90.40
2019-04-11T19:53:15.569Z,90.90
2019-04-11T19:56:11.197Z,91.70
2019-04-11T19:58:44.298Z,91.90
2019-04-11T20:01:23.520Z,92.40
2019-04-11T20:04:01.635Z,92.50
2019-04-11T20:06:41.113Z,92.80
2019-04-11T20:09:14.743Z,92.90
2019-04-11T20:11:49.278Z,93.10
2019-04-11T20:14:21.167Z,93.30
2019-04-11T20:16:59.196Z,93.40
2019-04-11T20:19:30.663Z,93.60
2019-04-11T20:22:08.606Z,93.80
2019-04-11T20:24:46.850Z,94.10
2019-04-11T20:27:20.939Z,94.20
2019-04-11T20:29:55.272Z,94.50
2019-04-11T20:32:25.752Z,94.80
2019-04-11T20:34:56.315Z,95.20
2019-04-11T20:37:38.516Z,95.50
2019-04-11T20:39:59.150Z,95.70
2019-04-11T20:42:30.191Z,96.20
2019-04-11T20:45:00.796Z,96.50
2019-04-11T20:47:31.410Z,96.80
2019-04-11T20:50:07.404Z,97.00
2019-04-11T20:52:34.469Z,97.20
2019-04-11T20:55:08.945Z,97.60
2019-04-11T20:57:37.469Z,97.80
2019-04-11T21:00:12.082Z,98.00
2019-04-11T21:02:40.630Z,97.90
2019-04-11T21:05:11.215Z,98.00
2019-04-11T21:07:41.840Z,98.20
2019-04-11T21:10:12.557Z,98.40
2019-04-11T21:12:43.029Z,98.40
2019-04-11T21:15:16.433Z,98.70
2019-04-11T21:17:49.095Z,98.70
2019-04-11T21:20:19.369Z,98.90
2019-04-11T21:22:53.744Z,98.90
2019-04-11T21:25:22.271Z,99.00
2019-04-11T21:27:52.905Z,99.00
2019-04-11T21:30:30.310Z,99.10
2019-04-11T21:33:01.086Z,99.00
2019-04-11T21:35:33.409Z,99.10
2019-04-11T21:38:05.769Z,99.10
2019-04-11T21:40:36.616Z,99.20
2019-04-11T21:43:07.305Z,99.50
2019-04-11T21:45:39.072Z,99.60
2019-04-11T21:48:09.678Z,99.60
2019-04-11T21:50:41.239Z,99.50
2019-04-11T21:53:14.293Z,99.60
2019-04-11T21:55:47.435Z,99.70
2019-04-11T21:58:19.411Z,99.70
2019-04-11T22:00:54.363Z,99.60
2019-04-11T22:03:25.662Z,99.50
2019-04-11T22:05:59.613Z,99.50
2019-04-11T22:08:28.651Z,99.60
2019-04-11T22:10:59.337Z,99.80
2019-04-11T22:13:29.951Z,99.90
2019-04-11T22:16:00.650Z,99.90
2019-04-11T22:18:31.331Z,99.90
2019-04-11T22:21:05.397Z,99.90
2019-04-11T22:23:48.134Z,99.90
2019-04-11T22:26:08.211Z,99.90
2019-04-11T22:28:38.654Z,99.90
2019-04-11T22:31:09.286Z,99.90
2019-04-11T22:33:43.829Z,99.90
2019-04-11T22:36:14.358Z,99.90
2019-04-11T22:38:45.097Z,99.90
2019-04-11T22:41:15.643Z,99.90
2019-04-11T22:43:46.087Z,99.90
2019-04-11T22:46:20.981Z,99.90
2019-04-11T22:48:48.897Z,99.90
2019-04-11T22:51:19.514Z,99.90
2019-04-11T22:53:59.924Z,99.90
2019-04-11T22:56:23.377Z,99.90
2019-04-11T22:58:55.019Z,99.90
2019-04-11T23:01:25.844Z,99.90
2019-04-11T23:03:59.638Z,99.90
2019-04-11T23:06:30.570Z,99.90
2019-04-11T23:09:02.026Z,99.90
2019-04-11T23:11:44.504Z,99.90
2019-04-11T23:14:15.789Z,99.90
2019-04-11T23:16:45.591Z,99.90
2019-04-11T23:19:16.360Z,99.90
2019-04-11T23:21:46.881Z,99.90
2019-04-11T23:24:17.408Z,99.90
2019-04-11T23:26:48.061Z,99.90
2019-04-11T23:29:18.623Z,99.90
2019-04-11T23:31:50.869Z,99.90
2019-04-11T23:34:22.131Z,99.90
2019-04-11T23:36:54.291Z,99.90
2019-04-11T23:39:24.835Z,99.90
2019-04-11T23:41:55.311Z,99.90
2019-04-11T23:44:25.794Z,99.90
2019-04-11T23:46:56.434Z,99.90
2019-04-11T23:49:26.877Z,99.90
2019-04-11T23:51:57.344Z,99.90
2019-04-11T23:54:29.252Z,99.90
2019-04-11T23:57:00.948Z,99.90
2019-04-11T23:59:34.400Z,99.90
